Time;durP1;ratioP1;P1;durP2;ratioP2;P2;SDS_P1;SDS_P2;PMS_P1;PMS_P2;Temp;Humidity;BMP_temperature;BMP_pressure;BME280_temperature;BME280_humidity;BME280_pressure;Samples;Min_cycle;Max_cycle;Signal;HPM_P1;HPM_P2
2022/11/28 00:01:42;;;;;;;17.95;5.35;;;;;;;7.10;84.43;102269.40;1921728;74;21434;-46
2022/11/28 00:04:11;;;;;;;14.03;3.87;;;;;;;7.11;84.43;102269.84;1923185;74;21093;-46
2022/11/28 00:06:49;;;;;;;10.03;4.45;;;;;;;7.11;84.42;102268.09;1920691;74;21559;-45
2022/11/28 00:09:15;;;;;;;20.15;5.15;;;;;;;7.09;84.43;102270.30;1918420;74;21030;-47
2022/11/28 00:11:45;;;;;;;13.13;4.25;;;;;;;7.06;84.51;102266.34;1911398;74;21259;-49
2022/11/28 00:14:15;;;;;;;13.93;4.90;;;;;;;7.05;84.58;102275.09;1911224;75;21039;-49
2022/11/28 00:16:44;;;;;;;14.53;3.65;;;;;;;7.06;84.60;102270.28;1918379;74;21583;-47
2022/11/28 00:19:14;;;;;;;15.05;4.22;;;;;;;7.05;84.59;102273.34;1923513;74;21105;-46
2022/11/28 00:21:43;;;;;;;14.50;4.22;;;;;;;7.05;84.63;102268.55;1915769;74;21481;-47
2022/11/28 00:24:12;;;;;;;16.15;4.92;;;;;;;7.03;84.65;102269.86;1921062;74;21058;-48
2022/11/28 00:26:42;;;;;;;14.90;3.87;;;;;;;7.05;84.68;102269.86;1922258;74;21130;-47
2022/11/28 00:29:11;;;;;;;13.50;4.33;;;;;;;7.03;84.68;102271.61;1923113;74;21587;-46
2022/11/28 00:31:42;;;;;;;19.73;5.03;;;;;;;7.03;84.75;102271.16;1918899;74;21590;-47
2022/11/28 00:34:13;;;;;;;15.25;4.25;;;;;;;7.04;84.75;102268.09;1916617;75;21046;-46
2022/11/28 00:36:45;;;;;;;10.93;4.28;;;;;;;7.04;84.77;102265.48;1915349;74;21154;-47
2022/11/28 00:39:14;;;;;;;9.93;3.10;;;;;;;7.05;84.77;102270.72;1916206;75;21082;-49
2022/11/28 00:41:44;;;;;;;11.40;3.40;;;;;;;7.04;84.82;102262.86;1915315;74;21101;-47
2022/11/28 00:44:14;;;;;;;11.73;3.92;;;;;;;7.06;84.82;102265.04;1920025;75;21039;-47
2022/11/28 00:46:43;;;;;;;14.53;4.87;;;;;;;7.07;84.80;102274.66;1911254;74;21091;-46
2022/11/28 00:49:12;;;;;;;12.70;4.45;;;;;;;7.05;84.85;102263.31;1913042;74;21047;-47
2022/11/28 00:51:40;;;;;;;14.13;4.42;;;;;;;7.05;84.84;102264.63;1917434;75;21167;-45
2022/11/28 00:54:10;;;;;;;12.73;3.33;;;;;;;7.04;84.84;102261.55;1920700;74;21131;-46
2022/11/28 00:56:39;;;;;;;11.38;4.05;;;;;;;7.02;84.85;102261.99;1920987;75;21490;-44
2022/11/28 00:59:08;;;;;;;14.95;3.92;;;;;;;7.00;84.87;102261.98;1918925;75;21587;-48
2022/11/28 01:01:42;;;;;;;16.55;4.75;;;;;;;6.99;84.91;102260.26;1912212;74;21175;-46
2022/11/28 01:04:13;;;;;;;21.35;5.03;;;;;;;6.99;84.92;102256.74;1892091;75;21083;-49
2022/11/28 01:06:45;;;;;;;17.50;4.70;;;;;;;6.99;84.94;102261.98;1937196;73;21089;-46
2022/11/28 01:09:19;;;;;;;21.23;5.58;;;;;;;7.00;84.92;102266.36;1924189;73;21047;-48
2022/11/28 01:11:50;;;;;;;14.45;4.60;;;;;;;6.99;84.91;102262.88;1915607;75;21043;-47
2022/11/28 01:14:22;;;;;;;12.10;4.55;;;;;;;7.02;84.92;102264.61;1916085;75;21141;-49
2022/11/28 01:16:50;;;;;;;12.73;3.08;;;;;;;7.03;84.89;102263.75;1910039;75;21116;-46
2022/11/28 01:19:20;;;;;;;15.28;4.30;;;;;;;7.04;84.87;102258.94;1917348;75;21251;-45
2022/11/28 01:21:49;;;;;;;20.15;4.72;;;;;;;7.03;84.84;102262.00;1921356;75;21036;-45
2022/11/28 01:24:18;;;;;;;17.70;4.97;;;;;;;7.02;84.88;102260.23;1915584;75;21554;-45
2022/11/28 01:26:46;;;;;;;13.62;3.85;;;;;;;7.00;84.90;102255.88;1915418;74;21036;-46
2022/11/28 01:29:15;;;;;;;14.83;4.37;;;;;;;6.98;84.91;102250.64;1917901;75;21015;-45
2022/11/28 01:31:44;;;;;;;17.45;4.85;;;;;;;6.99;84.92;102254.13;1920716;74;21118;-45
2022/11/28 01:34:13;;;;;;;18.10;5.15;;;;;;;7.00;84.89;102249.34;1946603;74;21117;-45
2022/11/28 01:36:42;;;;;;;13.08;3.62;;;;;;;7.00;84.89;102248.03;1946641;74;21023;-45
2022/11/28 01:39:11;;;;;;;13.98;4.30;;;;;;;7.00;84.90;102251.95;1946666;74;21062;-45
2022/11/28 01:41:39;;;;;;;12.23;3.52;;;;;;;6.99;84.89;102259.36;1946775;74;21036;-45
2022/11/28 01:44:17;;;;;;;12.93;3.02;;;;;;;6.98;84.92;102253.70;1947748;73;21122;-45
2022/11/28 01:46:45;;;;;;;10.65;3.98;;;;;;;6.98;84.92;102255.02;1954189;73;21047;-45
2022/11/28 01:49:32;;;;;;;9.38;3.15;;;;;;;6.96;84.90;102255.88;1956164;73;21050;-44
2022/11/28 01:52:03;;;;;;;15.80;4.53;;;;;;;6.95;84.93;102264.62;1955766;73;21176;-44
2022/11/28 01:54:35;;;;;;;10.75;3.70;;;;;;;6.94;84.92;102260.24;1956164;73;21025;-45
2022/11/28 01:57:06;;;;;;;15.18;4.03;;;;;;;6.95;84.94;102254.14;1956188;73;21574;-45
2022/11/28 01:59:41;;;;;;;10.08;4.08;;;;;;;6.94;84.94;102257.63;1956303;73;21019;-45
2022/11/28 02:02:13;;;;;;;11.08;4.22;;;;;;;6.94;84.95;102255.00;1955638;73;21150;-44
2022/11/28 02:04:42;;;;;;;15.20;4.55;;;;;;;6.95;84.94;102255.87;1956125;73;21023;-45
2022/11/28 02:07:11;;;;;;;15.03;3.87;;;;;;;6.94;84.95;102249.77;1956223;73;21618;-44
2022/11/28 02:09:40;;;;;;;16.30;4.65;;;;;;;6.96;84.92;102249.33;1956172;73;21023;-45
2022/11/28 02:12:28;;;;;;;11.12;4.00;;;;;;;6.98;84.92;102252.39;1941884;73;20983;-45
2022/11/28 02:15:14;;;;;;;10.43;3.40;;;;;;;6.97;84.90;102252.81;1920093;75;21422;-46
2022/11/28 02:18:10;;;;;;;12.23;3.55;;;;;;;6.95;84.90;102246.29;1919486;74;21120;-45
2022/11/28 02:21:09;;;;;;;9.43;3.15;;;;;;;6.93;84.95;102254.59;1923562;74;21493;-46
2022/11/28 02:23:50;;;;;;;13.22;4.40;;;;;;;6.92;84.94;102254.13;1946524;74;21035;-46
2022/11/28 02:26:24;;;;;;;14.55;3.42;;;;;;;6.93;84.98;102255.00;1945455;73;21027;-48
2022/11/28 02:29:14;;;;;;;18.17;4.60;;;;;;;6.95;84.94;102255.45;1888307;75;21043;-45
2022/11/28 02:32:19;;;;;;;13.90;4.25;;;;;;;6.97;84.90;102247.57;1792211;79;21083;-46
2022/11/28 02:35:08;;;;;;;10.53;3.55;;;;;;;7.00;84.84;102254.58;1892129;76;21058;-46
2022/11/28 02:38:13;;;;;;;10.48;4.20;;;;;;;6.97;84.84;102252.81;1854131;77;21540;-46
2022/11/28 02:40:45;;;;;;;13.72;4.62;;;;;;;6.95;84.86;102247.59;1890752;76;21080;-47
2022/11/28 02:43:44;;;;;;;14.25;4.33;;;;;;;6.96;84.85;102257.18;1892683;74;20998;-46
2022/11/28 02:46:15;;;;;;;11.30;4.35;;;;;;;6.95;84.87;102254.14;1891088;75;21484;-45
2022/11/28 02:48:58;;;;;;;10.08;3.65;;;;;;;6.94;84.90;102252.38;1890097;76;21038;-45
2022/11/28 02:51:39;;;;;;;15.48;4.42;;;;;;;6.93;84.93;102253.27;1901947;75;21019;-46
2022/11/28 02:54:11;;;;;;;16.02;3.95;;;;;;;6.94;84.93;102254.14;1912088;75;21536;-46
2022/11/28 02:56:41;;;;;;;11.80;3.58;;;;;;;6.93;84.94;102249.76;1902408;75;21453;-46
2022/11/28 02:59:29;;;;;;;16.48;5.03;;;;;;;6.93;84.98;102249.34;1891457;75;21002;-47
2022/11/28 03:01:58;;;;;;;16.87;5.37;;;;;;;6.95;84.99;102254.55;1892559;74;21046;-47
2022/11/28 03:04:33;;;;;;;16.37;5.28;;;;;;;6.95;84.97;102251.53;1908897;75;21469;-46
2022/11/28 03:07:10;;;;;;;14.43;4.40;;;;;;;6.95;84.93;102250.22;1909110;75;21118;-46
2022/11/28 03:09:44;;;;;;;17.40;5.83;;;;;;;6.95;84.97;102254.14;1913772;74;21082;-48
2022/11/28 03:12:34;;;;;;;16.35;4.78;;;;;;;6.94;84.96;102252.38;1922934;74;21038;-47
2022/11/28 03:15:06;;;;;;;15.05;4.83;;;;;;;6.96;85.01;102253.25;1923054;74;21046;-47
2022/11/28 03:17:43;;;;;;;14.78;4.47;;;;;;;6.94;85.04;102258.93;1909110;74;21043;-47
2022/11/28 03:20:33;;;;;;;20.00;5.58;;;;;;;6.96;85.05;102261.11;1911147;75;21224;-46
2022/11/28 03:23:19;;;;;;;14.45;5.30;;;;;;;6.97;85.04;102263.28;1914901;75;21123;-46
2022/11/28 03:25:51;;;;;;;12.05;3.87;;;;;;;6.96;85.04;102259.80;1917500;74;21444;-47
2022/11/28 03:28:22;;;;;;;15.63;5.25;;;;;;;6.95;85.05;102259.80;1934626;73;21113;-46
2022/11/28 03:31:03;;;;;;;15.48;4.12;;;;;;;6.95;85.11;102266.34;1953219;73;21023;-47
2022/11/28 03:33:35;;;;;;;16.15;4.92;;;;;;;6.93;85.16;102265.06;1954815;73;21184;-47
2022/11/28 03:36:13;;;;;;;12.20;4.08;;;;;;;6.94;85.12;102267.23;1934148;73;21028;-46
2022/11/28 03:38:48;;;;;;;14.90;4.30;;;;;;;6.92;85.17;102270.30;1919581;74;21553;-45
2022/11/28 03:41:35;;;;;;;14.73;4.95;;;;;;;6.92;85.20;102267.23;1919119;73;21060;-45
2022/11/28 03:44:06;;;;;;;11.55;3.62;;;;;;;6.93;85.20;102265.47;1919338;74;21067;-47
2022/11/28 03:46:40;;;;;;;15.63;5.25;;;;;;;6.93;85.20;102265.06;1918486;74;21470;-44
2022/11/28 03:49:11;;;;;;;21.15;5.22;;;;;;;6.93;85.21;102266.37;1919850;74;21011;-45
2022/11/28 03:51:42;;;;;;;15.40;5.10;;;;;;;6.94;85.21;102265.48;1920202;75;21144;-46
2022/11/28 03:54:23;;;;;;;16.30;4.85;;;;;;;6.95;85.19;102264.62;1920225;75;21038;-45
2022/11/28 03:57:05;;;;;;;15.65;5.47;;;;;;;6.98;85.18;102268.11;1920203;73;21035;-45
2022/11/28 03:59:36;;;;;;;16.52;5.70;;;;;;;6.98;85.14;102266.80;1920461;74;21003;-45
2022/11/28 04:02:40;;;;;;;14.13;5.62;;;;;;;7.01;85.14;102268.09;1912657;73;21524;-48
2022/11/28 04:05:21;;;;;;;13.88;4.95;;;;;;;7.00;85.17;102267.67;1937331;73;21030;-45
2022/11/28 04:08:05;;;;;;;18.37;5.72;;;;;;;6.99;85.13;102268.11;1917370;74;21110;-46
2022/11/28 04:10:39;;;;;;;12.93;4.85;;;;;;;7.00;85.16;102270.29;1921474;74;21096;-46
2022/11/28 04:13:11;;;;;;;14.60;4.97;;;;;;;7.01;85.16;102268.09;1916726;74;21555;-47
2022/11/28 04:15:57;;;;;;;12.93;4.25;;;;;;;7.03;85.14;102271.61;1915930;75;21038;-44
2022/11/28 04:18:41;;;;;;;18.73;5.83;;;;;;;7.03;85.13;102272.47;1915884;74;21134;-46
2022/11/28 04:21:37;;;;;;;15.85;5.03;;;;;;;7.03;85.10;102274.23;1916161;75;21139;-45
2022/11/28 04:24:14;;;;;;;14.40;4.05;;;;;;;7.04;85.11;102277.27;1917929;75;21060;-45
2022/11/28 04:26:49;;;;;;;16.75;6.00;;;;;;;7.03;85.11;102279.47;1920763;74;21165;-46
2022/11/28 04:29:21;;;;;;;12.40;4.83;;;;;;;7.01;85.15;102284.70;1921457;74;21016;-44
2022/11/28 04:31:52;;;;;;;12.35;5.25;;;;;;;7.00;85.18;102277.70;1920148;75;21098;-46
2022/11/28 04:34:23;;;;;;;18.15;4.92;;;;;;;7.01;85.19;102283.80;1888075;75;21505;-46
2022/11/28 04:36:54;;;;;;;15.45;4.83;;;;;;;7.03;85.20;102279.47;1893730;74;21044;-46
2022/11/28 04:39:25;;;;;;;11.73;4.83;;;;;;;7.04;85.19;102282.50;1890308;75;21670;-46
2022/11/28 04:41:57;;;;;;;14.50;5.22;;;;;;;7.04;85.20;102286.44;1890401;75;21039;-45
2022/11/28 04:44:37;;;;;;;11.88;4.80;;;;;;;7.03;85.22;102280.33;1917682;74;21147;-46
2022/11/28 04:47:07;;;;;;;22.67;5.58;;;;;;;7.05;85.21;102284.27;1931690;74;21500;-51
2022/11/28 04:49:36;;;;;;;23.62;5.45;;;;;;;7.05;85.20;102289.06;1933464;74;21481;-52
2022/11/28 04:52:24;;;;;;;17.87;6.20;;;;;;;7.05;85.19;102286.44;1900438;75;21063;-47
2022/11/28 04:55:21;;;;;;;18.85;5.05;;;;;;;7.05;85.20;102282.95;1900488;75;21063;-47
2022/11/28 04:57:53;;;;;;;21.70;5.47;;;;;;;7.02;85.25;102286.42;1900337;75;21498;-48
2022/11/28 05:00:22;;;;;;;21.93;6.05;;;;;;;7.02;85.33;102286.88;1903101;74;21139;-47
2022/11/28 05:02:54;;;;;;;23.67;6.22;;;;;;;7.03;85.36;102292.56;1899805;75;21043;-47
2022/11/28 05:05:27;;;;;;;38.00;8.38;;;;;;;7.05;85.35;102294.74;1899945;75;21134;-47
2022/11/28 05:07:57;;;;;;;23.57;5.80;;;;;;;7.06;85.33;102303.02;1899971;75;21043;-51
2022/11/28 05:10:26;;;;;;;19.05;6.00;;;;;;;7.08;85.35;102303.89;1899715;75;21474;-52
2022/11/28 05:12:55;;;;;;;15.50;4.80;;;;;;;7.09;85.36;102308.27;1930818;74;21090;-48
2022/11/28 05:15:24;;;;;;;15.93;5.25;;;;;;;7.10;85.36;102303.45;1933255;74;21038;-53
2022/11/28 05:17:53;;;;;;;14.98;5.45;;;;;;;7.08;85.45;102313.06;1933256;74;21058;-53
2022/11/28 05:20:21;;;;;;;10.90;3.15;;;;;;;7.07;85.49;102311.33;1949490;73;21083;-52
2022/11/28 05:22:50;;;;;;;16.05;4.12;;;;;;;7.08;85.50;102314.37;1953646;73;21031;-51
2022/11/28 05:25:19;;;;;;;13.75;4.83;;;;;;;7.08;85.52;102316.98;1951621;73;21078;-50
2022/11/28 05:27:48;;;;;;;18.77;5.62;;;;;;;7.06;85.52;102316.11;1951835;73;21427;-48
2022/11/28 05:30:17;;;;;;;17.57;5.28;;;;;;;7.09;85.50;102321.37;1951597;73;21031;-52
2022/11/28 05:32:46;;;;;;;21.93;6.92;;;;;;;7.11;85.45;102319.62;1950963;73;21034;-51
2022/11/28 05:35:14;;;;;;;19.07;6.22;;;;;;;7.13;85.41;102325.73;1946535;73;21103;-50
2022/11/28 05:37:43;;;;;;;16.42;6.05;;;;;;;7.14;85.40;102326.18;1945740;73;21112;-51
2022/11/28 05:40:12;;;;;;;14.93;5.22;;;;;;;7.13;85.41;102328.34;1945748;73;21027;-45
2022/11/28 05:42:41;;;;;;;12.37;5.70;;;;;;;7.13;85.45;102331.83;1948017;73;21121;-44
2022/11/28 05:45:10;;;;;;;15.68;4.78;;;;;;;7.10;85.53;102333.58;1952904;73;21148;-44
2022/11/28 05:47:39;;;;;;;32.85;7.25;;;;;;;7.11;85.56;102335.34;1953004;73;21014;-46
2022/11/28 05:50:08;;;;;;;24.52;5.40;;;;;;;7.13;85.56;102338.83;1951818;73;21054;-46
2022/11/28 05:52:37;;;;;;;16.35;6.35;;;;;;;7.15;85.56;102333.15;1945105;73;21023;-44
2022/11/28 05:55:07;;;;;;;18.98;4.87;;;;;;;7.17;85.54;102334.02;1945044;73;21011;-46
2022/11/28 05:57:36;;;;;;;28.87;6.35;;;;;;;7.17;85.56;102335.33;1945185;73;21097;-43
2022/11/28 06:00:05;;;;;;;21.23;5.42;;;;;;;7.18;85.59;102331.85;1944404;74;21521;-45
2022/11/28 06:02:36;;;;;;;27.45;6.03;;;;;;;7.19;85.61;102337.51;1943423;73;21075;-48
2022/11/28 06:05:05;;;;;;;20.35;6.15;;;;;;;7.20;85.64;102343.20;1945683;73;20996;-49
2022/11/28 06:07:34;;;;;;;21.40;4.30;;;;;;;7.20;85.70;102339.27;1945113;73;21482;-45
2022/11/28 06:10:03;;;;;;;7.25;3.00;;;;;;;7.22;85.72;102345.83;1945327;73;21055;-46
2022/11/28 06:12:32;;;;;;;15.80;3.77;;;;;;;7.23;85.89;102343.62;1943734;73;21051;-46
2022/11/28 06:15:00;;;;;;;15.80;4.10;;;;;;;7.23;85.98;102330.11;1944949;73;21104;-46
2022/11/28 06:17:30;;;;;;;12.85;2.92;;;;;;;7.24;86.08;102333.59;1946021;73;21651;-49
2022/11/28 06:19:59;;;;;;;17.25;4.28;;;;;;;7.25;86.11;102337.53;1944663;73;21055;-51
2022/11/28 06:22:28;;;;;;;15.35;4.85;;;;;;;7.26;86.16;102327.47;1924494;73;21033;-47
2022/11/28 06:24:56;;;;;;;15.63;5.92;;;;;;;7.29;86.21;102335.34;1938765;74;21118;-45
2022/11/28 06:27:25;;;;;;;12.90;5.10;;;;;;;7.31;86.22;102337.97;1941456;73;21072;-44
2022/11/28 06:29:54;;;;;;;18.00;6.35;;;;;;;7.32;86.21;102334.05;1945616;73;21101;-47
2022/11/28 06:32:23;;;;;;;5.37;2.45;;;;;;;7.35;86.19;102335.33;1944992;74;21031;-46
2022/11/28 06:34:51;;;;;;;11.75;3.42;;;;;;;7.35;86.18;102335.33;1936653;74;21074;-45
2022/11/28 06:37:20;;;;;;;9.63;3.37;;;;;;;7.31;86.26;102330.97;1920347;73;21101;-45
2022/11/28 06:39:50;;;;;;;10.85;3.25;;;;;;;7.30;86.35;102330.55;1888282;75;21058;-45
2022/11/28 06:42:18;;;;;;;12.40;3.87;;;;;;;7.30;86.42;102335.80;1888281;76;21027;-46
2022/11/28 06:44:47;;;;;;;16.02;4.33;;;;;;;7.31;86.45;102329.66;1888400;76;21026;-46
2022/11/28 06:47:16;;;;;;;19.10;3.80;;;;;;;7.32;86.49;102328.80;1908996;75;21042;-46
2022/11/28 06:49:45;;;;;;;13.20;5.25;;;;;;;7.39;86.52;102339.27;1918999;75;21200;-48
2022/11/28 06:52:13;;;;;;;12.35;4.92;;;;;;;7.42;86.47;102335.36;1919737;73;21054;-46
2022/11/28 06:54:43;;;;;;;11.33;5.37;;;;;;;7.43;86.45;102333.15;1916435;75;21019;-47
2022/11/28 06:57:12;;;;;;;11.15;4.15;;;;;;;7.44;86.41;102336.22;1917162;73;21457;-44
2022/11/28 06:59:41;;;;;;;15.55;5.25;;;;;;;7.41;86.38;102333.59;1917345;74;21085;-45
2022/11/28 07:02:11;;;;;;;14.05;5.00;;;;;;;7.39;86.42;102331.41;1916720;74;21450;-44
2022/11/28 07:04:40;;;;;;;13.08;4.17;;;;;;;7.38;86.48;102331.86;1916610;74;21088;-47
2022/11/28 07:07:09;;;;;;;13.20;5.25;;;;;;;7.39;86.48;102334.90;1917502;73;21042;-45
2022/11/28 07:09:38;;;;;;;14.63;4.30;;;;;;;7.37;86.51;102330.55;1921377;73;21089;-46
2022/11/28 07:12:07;;;;;;;16.00;6.00;;;;;;;7.36;86.52;102332.30;1921007;75;21023;-48
2022/11/28 07:14:35;;;;;;;14.50;4.42;;;;;;;7.37;86.54;102326.17;1920998;75;21019;-46
2022/11/28 07:17:04;;;;;;;6.90;3.17;;;;;;;7.37;86.59;102322.68;1920988;75;20995;-46
2022/11/28 07:19:33;;;;;;;12.65;4.25;;;;;;;7.34;86.69;102324.44;1916761;73;21031;-49
2022/11/28 07:22:02;;;;;;;12.43;3.98;;;;;;;7.33;86.75;102320.50;1916491;74;21070;-45
2022/11/28 07:24:31;;;;;;;15.40;6.25;;;;;;;7.36;86.71;102328.37;1916527;75;21112;-49
2022/11/28 07:27:00;;;;;;;30.12;10.28;;;;;;;7.35;86.65;102318.75;1916889;74;21084;-47
2022/11/28 07:29:34;;;;;;;23.38;8.70;;;;;;;7.33;86.65;102320.50;1917283;73;21035;-47
2022/11/28 07:31:59;;;;;;;15.23;5.15;;;;;;;7.30;86.66;102319.17;1916717;74;21104;-47
2022/11/28 07:34:28;;;;;;;21.52;4.25;;;;;;;7.29;86.68;102322.25;1916538;74;21112;-46
2022/11/28 07:36:57;;;;;;;20.10;4.30;;;;;;;7.28;86.72;102328.34;1941115;74;21145;-45
2022/11/28 07:39:26;;;;;;;12.88;5.08;;;;;;;7.29;86.81;102330.10;1946554;73;21082;-45
2022/11/28 07:41:55;;;;;;;20.48;5.17;;;;;;;7.31;86.79;102323.11;1952845;73;21410;-44
2022/11/28 07:44:23;;;;;;;37.95;12.95;;;;;;;7.35;86.77;102324.85;1952839;73;21063;-45
2022/11/28 07:46:52;;;;;;;42.25;12.10;;;;;;;7.37;86.71;102323.99;1952730;73;21097;-43
2022/11/28 07:49:21;;;;;;;36.75;13.65;;;;;;;7.38;86.67;102327.03;1950285;73;21007;-43
2022/11/28 07:51:49;;;;;;;22.62;7.10;;;;;;;7.38;86.68;102325.72;1952825;73;21023;-48
2022/11/28 07:54:18;;;;;;;28.80;9.40;;;;;;;7.41;86.70;102325.73;1952839;73;21144;-46
2022/11/28 07:56:47;;;;;;;14.63;6.00;;;;;;;7.43;86.66;102322.25;1952818;73;21007;-44
2022/11/28 07:59:16;;;;;;;25.55;6.30;;;;;;;7.46;86.60;102319.61;1952876;73;21070;-46
2022/11/28 08:01:44;;;;;;;16.20;5.97;;;;;;;7.47;86.56;102323.09;1940639;73;21181;-46
2022/11/28 08:04:13;;;;;;;15.80;5.35;;;;;;;7.48;86.54;102314.37;1938707;74;21525;-47
2022/11/28 08:06:43;;;;;;;17.42;6.03;;;;;;;7.45;86.56;102314.36;1948785;73;21097;-47
2022/11/28 08:09:12;;;;;;;14.73;5.03;;;;;;;7.44;86.58;102313.50;1951793;73;21406;-46
2022/11/28 08:11:41;;;;;;;10.28;3.37;;;;;;;7.46;86.60;102306.51;1952817;73;21101;-46
2022/11/28 08:14:10;;;;;;;22.65;6.55;;;;;;;7.51;86.57;102309.14;1952002;73;21191;-46
2022/11/28 08:16:43;;;;;;;28.73;8.23;;;;;;;7.52;86.49;102304.31;1945400;73;21043;-46
2022/11/28 08:19:10;;;;;;;26.05;6.50;;;;;;;7.53;86.44;102303.45;1944713;73;21117;-47
2022/11/28 08:21:39;;;;;;;16.37;7.30;;;;;;;7.53;86.37;102306.08;1944913;74;21466;-44
2022/11/28 08:24:08;;;;;;;15.58;5.60;;;;;;;7.53;86.36;102304.77;1944916;74;21085;-45
2022/11/28 08:26:38;;;;;;;10.95;4.87;;;;;;;7.52;86.32;102296.45;1944562;73;21135;-46
2022/11/28 08:29:06;;;;;;;4.20;2.25;;;;;;;7.51;86.30;102302.14;1944994;74;21054;-46
2022/11/28 08:31:38;;;;;;;6.67;2.62;;;;;;;7.48;86.32;102292.95;1944986;74;21027;-48
2022/11/28 08:34:11;;;;;;;13.65;5.10;;;;;;;7.45;86.33;102293.39;1945131;74;21105;-44
2022/11/28 08:36:42;;;;;;;19.12;5.95;;;;;;;7.45;86.35;102294.30;1943378;73;21035;-44
2022/11/28 08:39:11;;;;;;;13.68;2.75;;;;;;;7.47;86.39;102289.02;1942500;73;21082;-44
2022/11/28 08:41:41;;;;;;;12.85;4.37;;;;;;;7.52;86.40;102284.66;1942698;73;21032;-44
2022/11/28 08:44:10;;;;;;;14.60;5.12;;;;;;;7.57;86.37;102276.80;1942239;73;21089;-45
2022/11/28 08:46:38;;;;;;;18.55;6.45;;;;;;;7.63;86.34;102274.16;1941942;73;21080;-47
2022/11/28 08:49:07;;;;;;;30.35;8.60;;;;;;;7.68;86.21;102273.27;1949988;73;21120;-45
2022/11/28 08:51:37;;;;;;;8.95;4.60;;;;;;;7.74;86.08;102274.55;1949870;73;21142;-45
2022/11/28 08:54:06;;;;;;;18.52;6.08;;;;;;;7.74;85.95;102270.61;1949994;73;21483;-45
2022/11/28 08:56:35;;;;;;;24.05;6.40;;;;;;;7.71;85.89;102265.41;1948183;73;21043;-49
2022/11/28 08:59:05;;;;;;;15.90;5.17;;;;;;;7.73;85.92;102262.33;1949985;73;21506;-45
2022/11/28 09:01:34;;;;;;;17.82;6.90;;;;;;;7.73;85.83;102257.09;1949967;73;21019;-44
2022/11/28 09:04:04;;;;;;;20.48;4.87;;;;;;;7.72;85.82;102257.95;1950015;73;21101;-44
2022/11/28 09:06:33;;;;;;;11.90;5.47;;;;;;;7.72;85.78;102257.95;1950065;73;21101;-45
2022/11/28 09:09:02;;;;;;;16.87;5.50;;;;;;;7.73;85.74;102255.78;1940097;73;21093;-45
2022/11/28 09:11:31;;;;;;;19.00;5.17;;;;;;;7.73;85.74;102251.84;1942111;73;21019;-44
2022/11/28 09:14:01;;;;;;;10.50;4.53;;;;;;;7.74;85.70;102244.84;1942060;73;21019;-44
2022/11/28 09:16:29;;;;;;;15.90;5.83;;;;;;;7.79;85.72;102248.77;1941626;74;21019;-45
2022/11/28 09:18:58;;;;;;;18.40;6.05;;;;;;;7.79;85.65;102240.91;1941855;73;21108;-48
2022/11/28 09:21:27;;;;;;;16.65;6.28;;;;;;;7.77;85.51;102242.67;1941338;74;21038;-50
2022/11/28 09:23:56;;;;;;;22.50;7.60;;;;;;;7.77;85.56;102246.16;1942327;73;20996;-50
2022/11/28 09:26:26;;;;;;;15.65;7.30;;;;;;;7.79;85.54;102246.16;1941951;73;21141;-45
2022/11/28 09:28:55;;;;;;;13.18;5.67;;;;;;;7.80;85.51;102241.33;1940590;73;21523;-45
2022/11/28 09:31:24;;;;;;;13.40;5.83;;;;;;;7.82;85.46;102246.13;1941682;74;21023;-46
2022/11/28 09:33:54;;;;;;;17.30;6.12;;;;;;;7.80;85.38;102246.16;1941896;74;21093;-48
2022/11/28 09:36:23;;;;;;;16.82;7.17;;;;;;;7.74;85.31;102243.53;1941613;74;21090;-47
2022/11/28 09:38:52;;;;;;;17.55;6.62;;;;;;;7.70;85.34;102246.59;1940908;73;21047;-43
2022/11/28 09:41:33;;;;;;;23.07;7.80;;;;;;;7.65;85.35;102239.17;1942152;73;21454;-44
2022/11/28 09:44:04;;;;;;;20.90;6.67;;;;;;;7.63;85.39;102239.63;1940745;74;21028;-45
2022/11/28 09:46:36;;;;;;;17.02;7.20;;;;;;;7.58;85.42;102238.79;1938618;73;21430;-46
2022/11/28 09:49:33;;;;;;;19.20;8.38;;;;;;;7.55;85.46;102236.16;1938631;73;21028;-45
2022/11/28 09:52:13;;;;;;;22.40;8.08;;;;;;;7.50;85.52;102234.85;1940434;74;21012;-46
2022/11/28 09:54:51;;;;;;;15.88;5.80;;;;;;;7.48;85.56;102238.36;1903004;74;21032;-47
2022/11/28 09:57:22;;;;;;;28.17;9.98;;;;;;;7.49;85.58;102233.57;1941709;74;21470;-44
2022/11/28 09:59:51;;;;;;;21.42;9.08;;;;;;;7.49;85.55;102229.64;1939491;73;21040;-47
2022/11/28 10:02:23;;;;;;;18.92;8.03;;;;;;;7.50;85.54;102233.98;1941976;73;21152;-47
2022/11/28 10:05:13;;;;;;;19.37;7.03;;;;;;;7.47;85.54;102233.98;1941288;74;21516;-47
2022/11/28 10:07:50;;;;;;;21.52;8.33;;;;;;;7.46;85.53;102233.56;1941826;73;21535;-46
2022/11/28 10:10:34;;;;;;;33.20;11.43;;;;;;;7.47;85.55;102231.36;1940376;73;21587;-45
2022/11/28 10:13:23;;;;;;;40.33;12.70;;;;;;;7.46;85.50;102229.63;1917534;72;21063;-46
2022/11/28 10:16:01;;;;;;;22.07;9.70;;;;;;;7.47;85.54;102228.74;1975705;72;21501;-45
2022/11/28 10:18:32;;;;;;;25.43;9.28;;;;;;;7.42;85.52;102231.84;1975791;72;21044;-44
2022/11/28 10:21:04;;;;;;;18.75;7.83;;;;;;;7.42;85.56;102231.39;1975574;72;21047;-44
2022/11/28 10:23:44;;;;;;;17.85;7.25;;;;;;;7.44;85.57;102226.16;1962100;72;21481;-44
2022/11/28 10:26:34;;;;;;;16.85;7.30;;;;;;;7.48;85.50;102229.19;1950141;73;21003;-45
2022/11/28 10:29:15;;;;;;;15.20;6.62;;;;;;;7.46;85.44;102227.02;1949752;73;21031;-48
2022/11/28 10:31:46;;;;;;;23.25;8.83;;;;;;;7.47;85.44;102231.36;1949071;73;21054;-45
2022/11/28 10:34:29;;;;;;;19.42;8.08;;;;;;;7.45;85.47;102231.39;1948061;73;21051;-46
2022/11/28 10:37:16;;;;;;;14.33;6.42;;;;;;;7.46;85.44;102229.63;1950278;73;21031;-46
2022/11/28 10:39:45;;;;;;;19.05;8.50;;;;;;;7.45;85.43;102231.39;1952827;73;21034;-44
2022/11/28 10:42:47;;;;;;;18.55;7.72;;;;;;;7.46;85.45;102231.81;1953076;73;21058;-46
2022/11/28 10:45:37;;;;;;;11.93;5.58;;;;;;;7.46;85.41;102223.08;1952297;73;21027;-44
2022/11/28 10:48:26;;;;;;;12.63;5.80;;;;;;;7.44;85.39;102228.77;1952819;73;21501;-44
2022/11/28 10:51:20;;;;;;;15.80;7.12;;;;;;;7.42;85.43;102225.28;1949806;73;21035;-45
2022/11/28 10:54:13;;;;;;;14.40;6.50;;;;;;;7.38;85.43;102224.83;1945055;74;21059;-50
2022/11/28 10:56:53;;;;;;;13.00;5.97;;;;;;;7.37;85.43;102224.41;1944386;73;21087;-45
2022/11/28 10:59:39;;;;;;;12.45;5.55;;;;;;;7.34;85.41;102220.92;1945182;73;21494;-46
2022/11/28 11:02:17;;;;;;;13.45;5.60;;;;;;;7.32;85.45;102225.72;1945615;74;21506;-45
2022/11/28 11:04:46;;;;;;;21.05;8.38;;;;;;;7.31;85.48;102219.61;1936613;74;21055;-48
2022/11/28 11:07:24;;;;;;;22.42;8.38;;;;;;;7.29;85.47;102217.44;1945437;73;21098;-45
2022/11/28 11:09:55;;;;;;;12.63;5.67;;;;;;;7.29;85.45;102218.75;1945185;73;21035;-48
2022/11/28 11:12:29;;;;;;;10.18;5.15;;;;;;;7.31;85.40;102214.38;1944940;74;21458;-46
2022/11/28 11:14:58;;;;;;;11.38;5.72;;;;;;;7.31;85.38;102215.68;1944979;74;21602;-45
2022/11/28 11:17:36;;;;;;;11.75;5.95;;;;;;;7.29;85.39;102211.33;1950657;73;20991;-46
2022/11/28 11:20:24;;;;;;;11.38;5.42;;;;;;;7.28;85.38;102215.67;1952866;73;21018;-45
2022/11/28 11:23:01;;;;;;;11.73;5.35;;;;;;;7.26;85.33;102212.19;1952872;73;21019;-43
2022/11/28 11:25:32;;;;;;;10.20;4.90;;;;;;;7.21;85.31;102213.97;1953196;72;21183;-44
2022/11/28 11:28:03;;;;;;;13.20;4.40;;;;;;;7.20;85.31;102206.97;1978624;72;21027;-46
2022/11/28 11:30:45;;;;;;;13.50;6.67;;;;;;;7.17;85.29;102210.89;1966055;72;21092;-46
2022/11/28 11:33:16;;;;;;;14.95;6.17;;;;;;;7.12;85.30;102207.44;1951396;73;21104;-44
2022/11/28 11:35:48;;;;;;;12.28;5.50;;;;;;;7.11;85.31;102206.98;1952863;73;21058;-44
2022/11/28 11:38:20;;;;;;;27.42;7.45;;;;;;;7.10;85.26;102207.84;1947976;72;21079;-42
2022/11/28 11:40:50;;;;;;;20.20;8.10;;;;;;;7.11;85.29;102209.16;1947413;72;21054;-45
2022/11/28 11:43:30;;;;;;;26.62;9.73;;;;;;;7.12;85.28;102206.13;1942757;73;21050;-45
2022/11/28 11:46:14;;;;;;;28.20;10.70;;;;;;;7.09;85.24;102208.73;1940092;72;21164;-45
2022/11/28 11:48:49;;;;;;;27.82;10.32;;;;;;;7.11;85.21;102209.60;1949091;73;21145;-45
2022/11/28 11:51:27;;;;;;;33.70;13.15;;;;;;;7.10;85.12;102209.16;1949698;73;21493;-43
2022/11/28 11:54:16;;;;;;;23.57;8.88;;;;;;;7.08;85.08;102215.73;1949337;73;20999;-43